sensor_id;sensor_type;location;lat;lon;timestamp;pressure;altitude;pressure_sealevel;temperature;humidity
58534;BME280;44109;52.398;7.024;2022-07-25T00:00:53;100881.41;;;21.44;79.48
58534;BME280;44109;52.398;7.024;2022-07-25T00:03:21;100877.00;;;21.43;79.45
58534;BME280;44109;52.398;7.024;2022-07-25T00:05:48;100867.72;;;21.42;79.33
58534;BME280;44109;52.398;7.024;2022-07-25T00:08:16;100867.72;;;21.42;79.45
58534;BME280;44109;52.398;7.024;2022-07-25T00:10:44;100868.63;;;21.39;79.45
58534;BME280;44109;52.398;7.024;2022-07-25T00:13:12;100864.41;;;21.31;79.33
58534;BME280;44109;52.398;7.024;2022-07-25T00:15:39;100860.84;;;21.27;79.38
58534;BME280;44109;52.398;7.024;2022-07-25T00:18:08;100853.97;;;21.28;79.60
58534;BME280;44109;52.398;7.024;2022-07-25T00:20:36;100855.22;;;21.27;79.29
58534;BME280;44109;52.398;7.024;2022-07-25T00:23:03;100860.06;;;21.26;79.52
58534;BME280;44109;52.398;7.024;2022-07-25T00:25:31;100847.28;;;21.22;79.57
58534;BME280;44109;52.398;7.024;2022-07-25T00:27:58;100854.13;;;21.21;79.57
58534;BME280;44109;52.398;7.024;2022-07-25T00:30:26;100848.94;;;21.19;79.11
58534;BME280;44109;52.398;7.024;2022-07-25T00:32:53;100841.03;;;21.14;78.93
58534;BME280;44109;52.398;7.024;2022-07-25T00:35:22;100841.09;;;21.11;79.23
58534;BME280;44109;52.398;7.024;2022-07-25T00:37:50;100837.94;;;21.09;79.11
58534;BME280;44109;52.398;7.024;2022-07-25T00:40:17;100830.28;;;21.09;78.82
58534;BME280;44109;52.398;7.024;2022-07-25T00:42:45;100836.38;;;21.08;78.74
58534;BME280;44109;52.398;7.024;2022-07-25T00:45:13;100825.16;;;21.04;79.10
58534;BME280;44109;52.398;7.024;2022-07-25T00:47:40;100814.75;;;21.01;79.01
58534;BME280;44109;52.398;7.024;2022-07-25T00:50:08;100818.81;;;21.00;79.72
58534;BME280;44109;52.398;7.024;2022-07-25T00:52:37;100823.31;;;20.81;81.80
58534;BME280;44109;52.398;7.024;2022-07-25T00:55:06;100812.81;;;20.65;83.51
58534;BME280;44109;52.398;7.024;2022-07-25T00:57:34;100806.41;;;20.81;81.61
58534;BME280;44109;52.398;7.024;2022-07-25T01:00:04;100809.94;;;20.85;80.94
58534;BME280;44109;52.398;7.024;2022-07-25T01:02:33;100807.19;;;20.82;81.10
58534;BME280;44109;52.398;7.024;2022-07-25T01:05:01;100808.31;;;20.84;81.24
58534;BME280;44109;52.398;7.024;2022-07-25T01:07:29;100803.94;;;20.83;80.94
58534;BME280;44109;52.398;7.024;2022-07-25T01:10:00;100795.47;;;20.83;80.72
58534;BME280;44109;52.398;7.024;2022-07-25T01:12:27;100791.59;;;20.77;80.94
58534;BME280;44109;52.398;7.024;2022-07-25T01:14:55;100788.06;;;20.73;80.71
58534;BME280;44109;52.398;7.024;2022-07-25T01:17:23;100788.06;;;20.73;80.54
58534;BME280;44109;52.398;7.024;2022-07-25T01:19:51;100786.91;;;20.70;80.43
58534;BME280;44109;52.398;7.024;2022-07-25T01:22:20;100793.00;;;20.69;80.43
58534;BME280;44109;52.398;7.024;2022-07-25T01:24:47;100791.44;;;20.68;80.62
58534;BME280;44109;52.398;7.024;2022-07-25T01:27:15;100785.06;;;20.64;80.57
58534;BME280;44109;52.398;7.024;2022-07-25T01:29:42;100793.63;;;20.60;80.62
58534;BME280;44109;52.398;7.024;2022-07-25T01:32:11;100785.25;;;20.57;80.38
58534;BME280;44109;52.398;7.024;2022-07-25T01:34:38;100782.94;;;20.51;80.39
58534;BME280;44109;52.398;7.024;2022-07-25T01:37:06;100778.22;;;20.48;80.33
58534;BME280;44109;52.398;7.024;2022-07-25T01:39:35;100777.81;;;20.46;80.28
58534;BME280;44109;52.398;7.024;2022-07-25T01:42:02;100785.91;;;20.44;80.32
58534;BME280;44109;52.398;7.024;2022-07-25T01:44:30;100769.50;;;20.39;80.38
58534;BME280;44109;52.398;7.024;2022-07-25T01:46:58;100757.91;;;20.37;80.21
58534;BME280;44109;52.398;7.024;2022-07-25T01:49:25;100758.44;;;20.32;80.04
58534;BME280;44109;52.398;7.024;2022-07-25T01:51:53;100763.78;;;20.26;80.87
58534;BME280;44109;52.398;7.024;2022-07-25T01:54:20;100760.97;;;20.26;80.72
58534;BME280;44109;52.398;7.024;2022-07-25T01:56:49;100761.06;;;20.23;80.55
58534;BME280;44109;52.398;7.024;2022-07-25T01:59:17;100751.03;;;20.22;80.25
58534;BME280;44109;52.398;7.024;2022-07-25T02:01:44;100752.22;;;20.21;80.17
58534;BME280;44109;52.398;7.024;2022-07-25T02:04:12;100747.50;;;20.18;80.31
58534;BME280;44109;52.398;7.024;2022-07-25T02:06:39;100748.34;;;20.15;80.49
58534;BME280;44109;52.398;7.024;2022-07-25T02:09:07;100743.97;;;20.14;80.54
58534;BME280;44109;52.398;7.024;2022-07-25T02:11:35;100738.84;;;20.09;80.73
58534;BME280;44109;52.398;7.024;2022-07-25T02:14:05;100735.59;;;20.10;80.99
58534;BME280;44109;52.398;7.024;2022-07-25T02:16:33;100737.63;;;20.10;80.84
58534;BME280;44109;52.398;7.024;2022-07-25T02:19:00;100731.28;;;20.06;80.90
58534;BME280;44109;52.398;7.024;2022-07-25T02:21:28;100732.50;;;20.05;81.02
58534;BME280;44109;52.398;7.024;2022-07-25T02:23:56;100728.53;;;20.02;80.94
58534;BME280;44109;52.398;7.024;2022-07-25T02:26:24;100725.38;;;20.00;81.03
58534;BME280;44109;52.398;7.024;2022-07-25T02:28:51;100723.78;;;19.99;81.03
58534;BME280;44109;52.398;7.024;2022-07-25T02:31:20;100717.38;;;19.98;81.06
58534;BME280;44109;52.398;7.024;2022-07-25T02:33:48;100710.13;;;19.97;81.03
58534;BME280;44109;52.398;7.024;2022-07-25T02:36:16;100703.78;;;19.93;80.89
58534;BME280;44109;52.398;7.024;2022-07-25T02:38:43;100698.53;;;19.95;80.83
58534;BME280;44109;52.398;7.024;2022-07-25T02:41:11;100707.38;;;19.94;81.05
58534;BME280;44109;52.398;7.024;2022-07-25T02:43:38;100702.19;;;19.92;81.10
58534;BME280;44109;52.398;7.024;2022-07-25T02:46:06;100700.63;;;19.91;81.00
58534;BME280;44109;52.398;7.024;2022-07-25T02:48:35;100695.84;;;19.88;81.28
58534;BME280;44109;52.398;7.024;2022-07-25T02:51:02;100687.41;;;19.88;80.98
58534;BME280;44109;52.398;7.024;2022-07-25T02:53:30;100693.84;;;19.89;80.89
58534;BME280;44109;52.398;7.024;2022-07-25T02:55:57;100687.41;;;19.88;80.72
58534;BME280;44109;52.398;7.024;2022-07-25T02:58:25;100681.84;;;19.85;80.60
58534;BME280;44109;52.398;7.024;2022-07-25T03:00:52;100689.44;;;19.88;80.61
58534;BME280;44109;52.398;7.024;2022-07-25T03:03:20;100686.19;;;19.89;80.63
58534;BME280;44109;52.398;7.024;2022-07-25T03:05:49;100686.63;;;19.88;80.63
58534;BME280;44109;52.398;7.024;2022-07-25T03:08:16;100678.25;;;19.84;80.54
58534;BME280;44109;52.398;7.024;2022-07-25T03:10:45;100675.09;;;19.82;80.60
58534;BME280;44109;52.398;7.024;2022-07-25T03:13:13;100648.06;;;19.68;80.51
58534;BME280;44109;52.398;7.024;2022-07-25T03:15:40;100667.88;;;19.81;80.55
58534;BME280;44109;52.398;7.024;2022-07-25T03:18:08;100664.69;;;19.79;80.85
58534;BME280;44109;52.398;7.024;2022-07-25T03:20:35;100657.94;;;19.76;80.79
58534;BME280;44109;52.398;7.024;2022-07-25T03:23:05;100667.16;;;19.77;80.88
58534;BME280;44109;52.398;7.024;2022-07-25T03:25:32;100663.91;;;19.79;80.73
58534;BME280;44109;52.398;7.024;2022-07-25T03:28:00;100655.00;;;19.80;80.55
58534;BME280;44109;52.398;7.024;2022-07-25T03:30:27;100645.38;;;19.81;80.56
58534;BME280;44109;52.398;7.024;2022-07-25T03:32:55;100647.03;;;19.79;80.63
58534;BME280;44109;52.398;7.024;2022-07-25T03:35:22;100651.84;;;19.78;80.73
58534;BME280;44109;52.398;7.024;2022-07-25T03:37:51;100656.25;;;19.79;80.54
58534;BME280;44109;52.398;7.024;2022-07-25T03:40:20;100643.41;;;19.78;80.52
58534;BME280;44109;52.398;7.024;2022-07-25T03:42:47;100650.63;;;19.79;80.45
58534;BME280;44109;52.398;7.024;2022-07-25T03:45:15;100638.50;;;19.82;80.37
58534;BME280;44109;52.398;7.024;2022-07-25T03:47:42;100646.94;;;19.82;80.35
58534;BME280;44109;52.398;7.024;2022-07-25T03:50:10;100638.13;;;19.80;80.26
58534;BME280;44109;52.398;7.024;2022-07-25T03:52:38;100643.25;;;19.85;80.21
58534;BME280;44109;52.398;7.024;2022-07-25T03:55:08;100632.34;;;19.87;80.42
58534;BME280;44109;52.398;7.024;2022-07-25T03:57:38;100629.88;;;19.89;80.12
58534;BME280;44109;52.398;7.024;2022-07-25T04:00:07;100620.09;;;19.94;80.17
58534;BME280;44109;52.398;7.024;2022-07-25T04:02:37;100614.75;;;19.99;79.91
58534;BME280;44109;52.398;7.024;2022-07-25T04:05:05;100613.88;;;20.02;80.11
58534;BME280;44109;52.398;7.024;2022-07-25T04:07:35;100617.38;;;20.07;80.01
58534;BME280;44109;52.398;7.024;2022-07-25T04:10:04;100614.88;;;20.12;79.77
58534;BME280;44109;52.398;7.024;2022-07-25T04:12:32;100622.00;;;20.17;79.86
58534;BME280;44109;52.398;7.024;2022-07-25T04:15:02;100605.19;;;20.13;80.02
58534;BME280;44109;52.398;7.024;2022-07-25T04:17:29;100616.16;;;20.24;79.81
58534;BME280;44109;52.398;7.024;2022-07-25T04:19:57;100611.31;;;20.24;79.64
58534;BME280;44109;52.398;7.024;2022-07-25T04:22:24;100612.81;;;20.29;79.69
58534;BME280;44109;52.398;7.024;2022-07-25T04:24:53;100604.59;;;20.35;79.78
58534;BME280;44109;52.398;7.024;2022-07-25T04:27:20;100604.53;;;20.38;79.73
58534;BME280;44109;52.398;7.024;2022-07-25T04:29:48;100605.59;;;20.44;79.70
58534;BME280;44109;52.398;7.024;2022-07-25T04:32:17;100599.44;;;20.49;79.72
58534;BME280;44109;52.398;7.024;2022-07-25T04:34:44;100603.28;;;20.56;79.75
58534;BME280;44109;52.398;7.024;2022-07-25T04:37:12;100601.97;;;20.60;79.53
58534;BME280;44109;52.398;7.024;2022-07-25T04:39:39;100601.47;;;20.78;79.60
58534;BME280;44109;52.398;7.024;2022-07-25T04:42:07;100594.03;;;20.84;79.15
58534;BME280;44109;52.398;7.024;2022-07-25T04:44:34;100590.03;;;20.98;79.10
58534;BME280;44109;52.398;7.024;2022-07-25T04:47:02;100586.56;;;21.07;78.23
58534;BME280;44109;52.398;7.024;2022-07-25T04:49:32;100594.16;;;21.22;78.06
58534;BME280;44109;52.398;7.024;2022-07-25T04:51:59;100588.91;;;21.37;78.16
58534;BME280;44109;52.398;7.024;2022-07-25T04:54:27;100591.88;;;21.59;78.17
58534;BME280;44109;52.398;7.024;2022-07-25T04:56:55;100597.16;;;21.83;77.29
58534;BME280;44109;52.398;7.024;2022-07-25T04:59:22;100590.72;;;22.08;76.55
58534;BME280;44109;52.398;7.024;2022-07-25T05:01:50;100589.19;;;22.41;75.76
58534;BME280;44109;52.398;7.024;2022-07-25T05:04:17;100584.31;;;22.76;73.77
58534;BME280;44109;52.398;7.024;2022-07-25T05:06:46;100582.13;;;23.24;76.11
58534;BME280;44109;52.398;7.024;2022-07-25T05:09:14;100578.75;;;23.70;76.46
58534;BME280;44109;52.398;7.024;2022-07-25T05:11:41;100576.03;;;24.16;75.47
58534;BME280;44109;52.398;7.024;2022-07-25T05:14:09;100575.13;;;24.28;73.27
58534;BME280;44109;52.398;7.024;2022-07-25T05:16:36;100570.28;;;24.65;68.01
58534;BME280;44109;52.398;7.024;2022-07-25T05:19:04;100572.28;;;25.01;68.29
58534;BME280;44109;52.398;7.024;2022-07-25T05:21:33;100573.34;;;25.32;71.77
58534;BME280;44109;52.398;7.024;2022-07-25T05:24:02;100555.00;;;25.42;69.70
58534;BME280;44109;52.398;7.024;2022-07-25T05:26:30;100565.63;;;25.65;69.55
58534;BME280;44109;52.398;7.024;2022-07-25T05:28:58;100566.72;;;25.77;67.05
58534;BME280;44109;52.398;7.024;2022-07-25T05:31:25;100567.59;;;25.92;65.15
58534;BME280;44109;52.398;7.024;2022-07-25T05:33:53;100562.63;;;26.02;66.67
58534;BME280;44109;52.398;7.024;2022-07-25T05:36:20;100555.50;;;26.06;65.93
58534;BME280;44109;52.398;7.024;2022-07-25T05:38:48;100553.56;;;26.13;64.95
58534;BME280;44109;52.398;7.024;2022-07-25T05:41:17;100548.38;;;26.35;64.51
58534;BME280;44109;52.398;7.024;2022-07-25T05:43:44;100546.19;;;26.54;61.05
58534;BME280;44109;52.398;7.024;2022-07-25T05:46:14;100545.91;;;26.67;57.88
58534;BME280;44109;52.398;7.024;2022-07-25T05:48:41;100553.69;;;26.81;58.32
58534;BME280;44109;52.398;7.024;2022-07-25T05:51:09;100545.16;;;27.40;61.49
58534;BME280;44109;52.398;7.024;2022-07-25T05:53:37;100542.13;;;27.44;56.46
58534;BME280;44109;52.398;7.024;2022-07-25T05:56:05;100548.16;;;28.01;59.09
58534;BME280;44109;52.398;7.024;2022-07-25T05:58:34;100543.59;;;28.50;59.28
58534;BME280;44109;52.398;7.024;2022-07-25T06:01:05;100543.91;;;28.78;57.88
58534;BME280;44109;52.398;7.024;2022-07-25T06:03:33;100545.38;;;28.94;56.96
58534;BME280;44109;52.398;7.024;2022-07-25T06:06:01;100546.38;;;28.91;54.80
58534;BME280;44109;52.398;7.024;2022-07-25T06:08:28;100549.13;;;28.80;52.68
58534;BME280;44109;52.398;7.024;2022-07-25T06:10:56;100539.53;;;28.83;55.16
58534;BME280;44109;52.398;7.024;2022-07-25T06:13:24;100544.97;;;28.81;55.75
58534;BME280;44109;52.398;7.024;2022-07-25T06:15:54;100530.88;;;28.72;55.58
58534;BME280;44109;52.398;7.024;2022-07-25T06:18:21;100535.25;;;28.67;56.03
58534;BME280;44109;52.398;7.024;2022-07-25T06:20:49;100536.41;;;28.55;55.89
58534;BME280;44109;52.398;7.024;2022-07-25T06:23:17;100529.63;;;28.32;55.50
58534;BME280;44109;52.398;7.024;2022-07-25T06:25:45;100528.25;;;28.27;56.66
58534;BME280;44109;52.398;7.024;2022-07-25T06:28:13;100523.50;;;28.19;56.15
58534;BME280;44109;52.398;7.024;2022-07-25T06:30:41;100527.91;;;28.20;56.88
58534;BME280;44109;52.398;7.024;2022-07-25T06:33:11;100520.06;;;28.15;56.80
58534;BME280;44109;52.398;7.024;2022-07-25T06:35:39;100519.06;;;27.97;56.69
58534;BME280;44109;52.398;7.024;2022-07-25T06:38:07;100526.63;;;27.80;57.79
58534;BME280;44109;52.398;7.024;2022-07-25T06:40:34;100533.03;;;27.95;57.68
58534;BME280;44109;52.398;7.024;2022-07-25T06:43:02;100531.63;;;28.05;57.33
58534;BME280;44109;52.398;7.024;2022-07-25T06:45:29;100526.84;;;28.17;58.30
58534;BME280;44109;52.398;7.024;2022-07-25T06:47:57;100536.09;;;28.32;58.77
58534;BME280;44109;52.398;7.024;2022-07-25T06:50:26;100531.78;;;28.37;57.86
58534;BME280;44109;52.398;7.024;2022-07-25T06:52:53;100524.63;;;28.27;56.99
58534;BME280;44109;52.398;7.024;2022-07-25T06:55:21;100530.59;;;28.29;57.60
58534;BME280;44109;52.398;7.024;2022-07-25T06:57:48;100533.69;;;28.25;57.35
58534;BME280;44109;52.398;7.024;2022-07-25T07:00:16;100533.84;;;28.16;56.78
58534;BME280;44109;52.398;7.024;2022-07-25T07:02:48;100539.09;;;28.23;57.33
58534;BME280;44109;52.398;7.024;2022-07-25T07:05:17;100532.06;;;28.39;58.09
58534;BME280;44109;52.398;7.024;2022-07-25T07:07:47;100528.41;;;28.39;54.98
58534;BME280;44109;52.398;7.024;2022-07-25T07:10:14;100531.53;;;28.61;58.13
58534;BME280;44109;52.398;7.024;2022-07-25T07:12:43;100531.03;;;28.63;57.43
58534;BME280;44109;52.398;7.024;2022-07-25T07:15:10;100524.25;;;28.60;57.58
58534;BME280;44109;52.398;7.024;2022-07-25T07:17:39;100524.94;;;28.49;56.46
58534;BME280;44109;52.398;7.024;2022-07-25T07:20:07;100518.34;;;28.43;56.23
58534;BME280;44109;52.398;7.024;2022-07-25T07:22:43;100520.88;;;28.36;55.88
58534;BME280;44109;52.398;7.024;2022-07-25T07:25:14;100519.72;;;28.27;56.30
58534;BME280;44109;52.398;7.024;2022-07-25T07:27:43;100514.72;;;28.22;56.24
58534;BME280;44109;52.398;7.024;2022-07-25T07:30:12;100517.38;;;28.26;58.00
58534;BME280;44109;52.398;7.024;2022-07-25T07:32:40;100515.22;;;28.41;57.39
58534;BME280;44109;52.398;7.024;2022-07-25T07:35:09;100510.59;;;28.70;59.13
58534;BME280;44109;52.398;7.024;2022-07-25T07:37:37;100506.53;;;29.02;59.20
58534;BME280;44109;52.398;7.024;2022-07-25T07:40:06;100518.22;;;29.36;58.52
58534;BME280;44109;52.398;7.024;2022-07-25T07:42:39;100507.38;;;29.83;53.50
58534;BME280;44109;52.398;7.024;2022-07-25T07:45:15;100505.09;;;30.52;52.18
58534;BME280;44109;52.398;7.024;2022-07-25T07:47:44;100500.94;;;30.53;49.02
58534;BME280;44109;52.398;7.024;2022-07-25T07:50:14;100492.41;;;30.81;49.49
58534;BME280;44109;52.398;7.024;2022-07-25T07:52:44;100497.59;;;30.83;48.79
58534;BME280;44109;52.398;7.024;2022-07-25T07:55:12;100501.00;;;30.11;45.95
58534;BME280;44109;52.398;7.024;2022-07-25T07:57:59;100495.81;;;30.09;44.07
58534;BME280;44109;52.398;7.024;2022-07-25T08:00:29;100496.16;;;30.28;47.96
58534;BME280;44109;52.398;7.024;2022-07-25T08:02:58;100508.56;;;30.90;44.16
58534;BME280;44109;52.398;7.024;2022-07-25T08:05:28;100505.94;;;30.10;42.92
58534;BME280;44109;52.398;7.024;2022-07-25T08:07:57;100513.34;;;30.33;44.64
58534;BME280;44109;52.398;7.024;2022-07-25T08:10:26;100504.38;;;30.91;44.11
58534;BME280;44109;52.398;7.024;2022-07-25T08:12:56;100515.56;;;31.56;42.11
58534;BME280;44109;52.398;7.024;2022-07-25T08:15:25;100509.63;;;31.43;42.62
58534;BME280;44109;52.398;7.024;2022-07-25T08:17:53;100506.69;;;31.66;40.99
58534;BME280;44109;52.398;7.024;2022-07-25T08:20:21;100508.75;;;31.88;42.48
58534;BME280;44109;52.398;7.024;2022-07-25T08:22:49;100505.44;;;31.44;41.29
58534;BME280;44109;52.398;7.024;2022-07-25T08:25:18;100513.63;;;30.36;44.33
58534;BME280;44109;52.398;7.024;2022-07-25T08:27:47;100502.00;;;30.62;42.27
58534;BME280;44109;52.398;7.024;2022-07-25T08:30:16;100491.53;;;31.93;43.09
58534;BME280;44109;52.398;7.024;2022-07-25T08:32:47;100495.63;;;32.67;44.03
58534;BME280;44109;52.398;7.024;2022-07-25T08:35:16;100500.97;;;32.46;40.44
58534;BME280;44109;52.398;7.024;2022-07-25T08:37:43;100492.25;;;32.05;39.92
58534;BME280;44109;52.398;7.024;2022-07-25T08:40:12;100493.72;;;31.53;41.81
58534;BME280;44109;52.398;7.024;2022-07-25T08:42:41;100506.41;;;31.86;40.69
58534;BME280;44109;52.398;7.024;2022-07-25T08:45:11;100514.19;;;30.51;44.60
58534;BME280;44109;52.398;7.024;2022-07-25T08:47:41;100503.09;;;31.48;42.62
58534;BME280;44109;52.398;7.024;2022-07-25T08:50:11;100512.25;;;31.30;41.93
58534;BME280;44109;52.398;7.024;2022-07-25T08:52:42;100516.63;;;30.86;42.59
58534;BME280;44109;52.398;7.024;2022-07-25T08:55:12;100523.53;;;29.49;45.07
58534;BME280;44109;52.398;7.024;2022-07-25T08:57:42;100530.94;;;29.67;46.93
58534;BME280;44109;52.398;7.024;2022-07-25T09:00:14;100519.22;;;29.01;47.92
58534;BME280;44109;52.398;7.024;2022-07-25T09:02:50;100522.56;;;30.06;45.97
58534;BME280;44109;52.398;7.024;2022-07-25T09:05:20;100517.50;;;30.32;45.26
58534;BME280;44109;52.398;7.024;2022-07-25T09:07:50;100514.41;;;30.36;45.74
58534;BME280;44109;52.398;7.024;2022-07-25T09:10:20;100515.34;;;31.21;41.96
58534;BME280;44109;52.398;7.024;2022-07-25T09:12:51;100514.81;;;30.12;44.72
58534;BME280;44109;52.398;7.024;2022-07-25T09:15:25;100520.91;;;30.37;45.60
58534;BME280;44109;52.398;7.024;2022-07-25T09:17:54;100520.63;;;30.29;45.60
58534;BME280;44109;52.398;7.024;2022-07-25T09:20:36;100512.91;;;30.57;45.66
58534;BME280;44109;52.398;7.024;2022-07-25T09:23:06;100508.47;;;29.91;45.45
58534;BME280;44109;52.398;7.024;2022-07-25T09:25:34;100501.00;;;30.05;46.91
58534;BME280;44109;52.398;7.024;2022-07-25T09:28:10;100504.81;;;30.56;46.60
58534;BME280;44109;52.398;7.024;2022-07-25T09:30:39;100505.19;;;31.08;45.79
58534;BME280;44109;52.398;7.024;2022-07-25T09:33:07;100520.97;;;30.48;45.05
58534;BME280;44109;52.398;7.024;2022-07-25T09:35:36;100522.81;;;30.68;44.33
58534;BME280;44109;52.398;7.024;2022-07-25T09:38:09;100524.97;;;31.06;46.28
58534;BME280;44109;52.398;7.024;2022-07-25T09:40:38;100517.03;;;30.40;46.88
58534;BME280;44109;52.398;7.024;2022-07-25T09:43:07;100514.03;;;31.22;46.31
58534;BME280;44109;52.398;7.024;2022-07-25T09:45:35;100498.66;;;31.25;43.65
58534;BME280;44109;52.398;7.024;2022-07-25T09:48:03;100513.50;;;31.06;44.12
58534;BME280;44109;52.398;7.024;2022-07-25T09:50:32;100523.94;;;30.98;46.19
58534;BME280;44109;52.398;7.024;2022-07-25T09:53:01;100524.47;;;31.36;43.53
58534;BME280;44109;52.398;7.024;2022-07-25T09:55:29;100529.88;;;31.73;45.10
58534;BME280;44109;52.398;7.024;2022-07-25T09:57:57;100523.91;;;31.66;44.01
58534;BME280;44109;52.398;7.024;2022-07-25T10:00:26;100519.78;;;31.22;45.64
58534;BME280;44109;52.398;7.024;2022-07-25T10:03:07;100524.94;;;30.73;45.59
58534;BME280;44109;52.398;7.024;2022-07-25T10:05:50;100522.16;;;28.81;45.92
58534;BME280;44109;52.398;7.024;2022-07-25T10:08:37;100532.75;;;28.14;46.44
58534;BME280;44109;52.398;7.024;2022-07-25T10:11:17;100532.88;;;28.25;47.39
58534;BME280;44109;52.398;7.024;2022-07-25T10:13:46;100535.16;;;29.08;41.53
58534;BME280;44109;52.398;7.024;2022-07-25T10:16:15;100540.00;;;29.60;43.23
58534;BME280;44109;52.398;7.024;2022-07-25T10:18:49;100538.50;;;29.70;41.57
58534;BME280;44109;52.398;7.024;2022-07-25T10:21:18;100528.28;;;29.26;41.27
58534;BME280;44109;52.398;7.024;2022-07-25T10:23:58;100541.06;;;28.78;43.55
58534;BME280;44109;52.398;7.024;2022-07-25T10:26:28;100529.34;;;28.30;43.67
58534;BME280;44109;52.398;7.024;2022-07-25T10:28:57;100531.09;;;28.94;44.47
58534;BME280;44109;52.398;7.024;2022-07-25T10:31:33;100535.97;;;29.83;44.24
58534;BME280;44109;52.398;7.024;2022-07-25T10:34:05;100541.19;;;30.39;42.80
58534;BME280;44109;52.398;7.024;2022-07-25T10:36:42;100553.78;;;30.58;41.25
58534;BME280;44109;52.398;7.024;2022-07-25T10:39:15;100547.16;;;31.40;41.39
58534;BME280;44109;52.398;7.024;2022-07-25T10:41:50;100545.03;;;31.51;39.87
58534;BME280;44109;52.398;7.024;2022-07-25T10:44:19;100554.16;;;30.99;42.11
58534;BME280;44109;52.398;7.024;2022-07-25T10:46:47;100543.91;;;30.11;39.98
58534;BME280;44109;52.398;7.024;2022-07-25T10:49:18;100539.53;;;29.67;42.97
58534;BME280;44109;52.398;7.024;2022-07-25T10:51:54;100541.91;;;29.42;42.34
58534;BME280;44109;52.398;7.024;2022-07-25T10:54:24;100543.41;;;29.06;42.44
58534;BME280;44109;52.398;7.024;2022-07-25T10:56:54;100536.25;;;29.85;44.00
58534;BME280;44109;52.398;7.024;2022-07-25T10:59:27;100548.84;;;30.10;42.29
58534;BME280;44109;52.398;7.024;2022-07-25T11:01:56;100548.66;;;30.14;39.45
58534;BME280;44109;52.398;7.024;2022-07-25T11:04:24;100559.97;;;30.45;38.86
58534;BME280;44109;52.398;7.024;2022-07-25T11:06:53;100555.34;;;30.70;39.28
58534;BME280;44109;52.398;7.024;2022-07-25T11:09:24;100549.44;;;30.14;39.71
58534;BME280;44109;52.398;7.024;2022-07-25T11:11:54;100555.06;;;29.60;41.20
58534;BME280;44109;52.398;7.024;2022-07-25T11:14:24;100549.94;;;29.70;41.77
58534;BME280;44109;52.398;7.024;2022-07-25T11:17:10;100542.34;;;28.77;41.27
58534;BME280;44109;52.398;7.024;2022-07-25T11:19:41;100545.44;;;29.26;42.71
58534;BME280;44109;52.398;7.024;2022-07-25T11:22:11;100559.13;;;28.70;42.62
58534;BME280;44109;52.398;7.024;2022-07-25T11:24:41;100562.78;;;29.22;43.36
58534;BME280;44109;52.398;7.024;2022-07-25T11:27:12;100558.28;;;29.73;43.37
58534;BME280;44109;52.398;7.024;2022-07-25T11:29:46;100567.59;;;29.37;42.16
58534;BME280;44109;52.398;7.024;2022-07-25T11:32:14;100573.75;;;28.77;43.63
58534;BME280;44109;52.398;7.024;2022-07-25T11:34:43;100575.88;;;28.82;44.91
58534;BME280;44109;52.398;7.024;2022-07-25T11:37:15;100576.09;;;29.94;41.19
58534;BME280;44109;52.398;7.024;2022-07-25T11:39:46;100567.06;;;29.38;42.16
58534;BME280;44109;52.398;7.024;2022-07-25T11:42:17;100559.25;;;30.07;42.99
58534;BME280;44109;52.398;7.024;2022-07-25T11:44:48;100572.38;;;29.82;42.83
58534;BME280;44109;52.398;7.024;2022-07-25T11:47:25;100571.50;;;28.87;43.28
58534;BME280;44109;52.398;7.024;2022-07-25T11:49:56;100570.50;;;28.90;43.68
58534;BME280;44109;52.398;7.024;2022-07-25T11:52:27;100566.94;;;29.21;42.79
58534;BME280;44109;52.398;7.024;2022-07-25T11:54:59;100565.19;;;29.61;43.20
58534;BME280;44109;52.398;7.024;2022-07-25T11:57:32;100573.66;;;28.46;44.66
58534;BME280;44109;52.398;7.024;2022-07-25T12:00:03;100566.22;;;28.13;44.87
58534;BME280;44109;52.398;7.024;2022-07-25T12:02:35;100569.28;;;28.50;44.47
58534;BME280;44109;52.398;7.024;2022-07-25T12:05:04;100569.38;;;28.36;44.15
58534;BME280;44109;52.398;7.024;2022-07-25T12:07:37;100570.94;;;28.83;45.51
58534;BME280;44109;52.398;7.024;2022-07-25T12:10:10;100577.44;;;28.83;43.31
58534;BME280;44109;52.398;7.024;2022-07-25T12:12:42;100573.78;;;28.37;42.52
58534;BME280;44109;52.398;7.024;2022-07-25T12:15:11;100580.97;;;28.32;45.05
58534;BME280;44109;52.398;7.024;2022-07-25T12:17:40;100584.25;;;28.66;44.35
58534;BME280;44109;52.398;7.024;2022-07-25T12:20:16;100577.22;;;28.87;44.13
58534;BME280;44109;52.398;7.024;2022-07-25T12:22:45;100591.41;;;28.55;43.97
58534;BME280;44109;52.398;7.024;2022-07-25T12:25:15;100585.06;;;27.90;46.04
58534;BME280;44109;52.398;7.024;2022-07-25T12:27:42;100587.34;;;28.42;45.28
58534;BME280;44109;52.398;7.024;2022-07-25T12:30:11;100592.28;;;28.62;43.92
58534;BME280;44109;52.398;7.024;2022-07-25T12:32:40;100586.63;;;28.67;43.62
58534;BME280;44109;52.398;7.024;2022-07-25T12:35:11;100587.72;;;28.49;44.63
58534;BME280;44109;52.398;7.024;2022-07-25T12:37:40;100589.19;;;29.12;42.38
58534;BME280;44109;52.398;7.024;2022-07-25T12:40:09;100591.03;;;28.48;45.65
58534;BME280;44109;52.398;7.024;2022-07-25T12:42:39;100592.72;;;27.99;45.90
58534;BME280;44109;52.398;7.024;2022-07-25T12:45:07;100597.88;;;28.56;45.28
58534;BME280;44109;52.398;7.024;2022-07-25T12:47:36;100590.53;;;28.70;46.76
58534;BME280;44109;52.398;7.024;2022-07-25T12:50:05;100585.72;;;28.81;44.68
58534;BME280;44109;52.398;7.024;2022-07-25T12:52:33;100601.88;;;29.11;45.79
58534;BME280;44109;52.398;7.024;2022-07-25T12:55:03;100606.78;;;29.04;46.25
58534;BME280;44109;52.398;7.024;2022-07-25T12:57:32;100600.28;;;29.30;46.26
58534;BME280;44109;52.398;7.024;2022-07-25T13:00:03;100593.56;;;29.65;45.06